createdAt,value
2023-01-07T00:01:38.908Z,11.01
2023-01-07T00:03:44.361Z,11.02
2023-01-07T00:05:49.247Z,11.06
2023-01-07T00:07:54.286Z,11.08
2023-01-07T00:09:59.151Z,11.08
2023-01-07T00:12:03.957Z,11.06
2023-01-07T00:14:13.484Z,11.04
2023-01-07T00:16:20.583Z,11.06
2023-01-07T00:18:25.401Z,11.04
2023-01-07T00:20:30.201Z,11.06
2023-01-07T00:22:36.313Z,11.06
2023-01-07T00:24:41.061Z,11.07
2023-01-07T00:26:45.974Z,11.06
2023-01-07T00:28:52.135Z,11.05
2023-01-07T00:31:05.128Z,11.10
2023-01-07T00:33:13.571Z,11.10
2023-01-07T00:35:24.303Z,11.14
2023-01-07T00:37:42.199Z,11.12
2023-01-07T00:39:47.018Z,11.13
2023-01-07T00:42:04.780Z,11.15
2023-01-07T00:44:10.550Z,11.14
2023-01-07T00:46:18.568Z,11.16
2023-01-07T00:48:26.584Z,11.17
2023-01-07T00:50:33.559Z,11.18
2023-01-07T00:52:38.908Z,11.17
2023-01-07T00:54:43.901Z,11.17
2023-01-07T00:56:48.732Z,11.18
2023-01-07T00:58:54.123Z,11.18
2023-01-07T01:01:00.406Z,11.19
2023-01-07T01:03:07.824Z,11.20
2023-01-07T01:05:13.767Z,11.19
2023-01-07T01:07:18.571Z,11.21
2023-01-07T01:09:27.673Z,11.21
2023-01-07T01:11:32.432Z,11.20
2023-01-07T01:13:38.363Z,11.20
2023-01-07T01:15:45.301Z,11.20
2023-01-07T01:17:50.113Z,11.18
2023-01-07T01:20:00.361Z,11.16
2023-01-07T01:22:05.470Z,11.17
2023-01-07T01:24:10.590Z,11.18
2023-01-07T01:26:16.060Z,11.11
2023-01-07T01:28:20.837Z,11.08
2023-01-07T01:30:25.777Z,11.08
2023-01-07T01:32:31.426Z,11.09
2023-01-07T01:34:36.385Z,11.09
2023-01-07T01:36:43.747Z,11.09
2023-01-07T01:38:48.843Z,11.10
2023-01-07T01:40:53.841Z,11.12
2023-01-07T01:42:58.837Z,11.12
2023-01-07T01:45:06.071Z,11.13
2023-01-07T01:47:21.191Z,11.14
2023-01-07T01:49:29.501Z,11.13
2023-01-07T01:51:37.287Z,11.15
2023-01-07T01:53:46.161Z,11.16
2023-01-07T01:55:56.986Z,11.17
2023-01-07T01:58:04.694Z,11.18
2023-01-07T02:00:12.577Z,11.17
2023-01-07T02:02:25.748Z,11.17
2023-01-07T02:04:31.076Z,11.18
2023-01-07T02:06:40.271Z,11.17
2023-01-07T02:08:47.931Z,11.19
2023-01-07T02:10:57.487Z,11.19
2023-01-07T02:13:25.273Z,11.20
2023-01-07T02:15:38.496Z,11.19
2023-01-07T02:17:58.523Z,11.19
2023-01-07T02:20:32.167Z,11.21
2023-01-07T02:23:01.849Z,11.18
2023-01-07T02:25:42.203Z,11.16
2023-01-07T02:28:13.531Z,11.15
2023-01-07T02:30:44.581Z,11.14
2023-01-07T02:33:24.777Z,11.16
2023-01-07T02:35:53.333Z,11.15
2023-01-07T02:38:07.257Z,11.13
2023-01-07T02:40:19.510Z,11.14
2023-01-07T02:42:32.194Z,11.14
2023-01-07T02:44:43.058Z,11.15
2023-01-07T02:46:53.708Z,11.14
2023-01-07T02:49:02.258Z,11.12
2023-01-07T02:51:09.693Z,11.14
2023-01-07T02:53:20.339Z,11.14
2023-01-07T02:55:37.959Z,11.17
2023-01-07T02:58:02.514Z,11.16
2023-01-07T03:00:21.451Z,11.14
2023-01-07T03:02:55.417Z,11.14
2023-01-07T03:05:12.970Z,11.09
2023-01-07T03:07:31.718Z,11.09
2023-01-07T03:09:44.199Z,11.07
2023-01-07T03:11:57.461Z,11.07
2023-01-07T03:14:08.054Z,11.07
2023-01-07T03:16:18.978Z,11.07
2023-01-07T03:18:29.025Z,11.07
2023-01-07T03:20:41.853Z,11.05
2023-01-07T03:22:50.045Z,11.00
2023-01-07T03:24:59.557Z,10.98
2023-01-07T03:27:07.463Z,10.95
2023-01-07T03:29:15.319Z,10.90
2023-01-07T03:31:23.661Z,10.88
2023-01-07T03:33:34.042Z,10.87
2023-01-07T03:35:42.918Z,10.89
2023-01-07T03:37:54.631Z,10.85
2023-01-07T03:40:00.172Z,10.82
2023-01-07T03:42:21.669Z,10.83
2023-01-07T03:44:27.221Z,10.84
2023-01-07T03:46:32.939Z,10.88
2023-01-07T03:48:37.749Z,10.88
2023-01-07T03:50:42.607Z,10.88
2023-01-07T03:52:51.254Z,10.85
2023-01-07T03:54:57.688Z,10.81
2023-01-07T03:57:02.754Z,10.80
2023-01-07T03:59:07.610Z,10.80
2023-01-07T04:01:12.665Z,10.76
2023-01-07T04:03:17.520Z,10.74
2023-01-07T04:05:24.845Z,10.73
2023-01-07T04:07:30.274Z,10.75
2023-01-07T04:09:37.877Z,10.75
2023-01-07T04:11:42.635Z,10.73
2023-01-07T04:13:47.616Z,10.74
2023-01-07T04:15:52.406Z,10.75
2023-01-07T04:17:57.375Z,10.75
2023-01-07T04:20:03.836Z,10.75
2023-01-07T04:22:09.603Z,10.76
2023-01-07T04:24:14.613Z,10.77
2023-01-07T04:26:22.990Z,10.79
2023-01-07T04:28:28.814Z,10.81
2023-01-07T04:30:33.708Z,10.81
2023-01-07T04:32:39.534Z,10.81
2023-01-07T04:34:44.397Z,10.77
2023-01-07T04:36:50.549Z,10.74
2023-01-07T04:38:55.409Z,10.70
2023-01-07T04:41:00.744Z,10.64
2023-01-07T04:43:08.194Z,10.63
2023-01-07T04:45:14.268Z,10.62
2023-01-07T04:47:20.050Z,10.65
2023-01-07T04:49:25.533Z,10.70
2023-01-07T04:51:31.547Z,10.71
2023-01-07T04:53:36.913Z,10.72
2023-01-07T04:55:41.817Z,10.72
2023-01-07T04:57:47.330Z,10.70
2023-01-07T04:59:56.677Z,10.72
2023-01-07T05:02:01.636Z,10.72
2023-01-07T05:04:08.178Z,10.75
2023-01-07T05:06:14.047Z,10.76
2023-01-07T05:08:19.496Z,10.72
2023-01-07T05:10:25.695Z,10.72
2023-01-07T05:12:31.283Z,10.71
2023-01-07T05:14:36.166Z,10.73
2023-01-07T05:16:43.710Z,10.71
2023-01-07T05:18:51.984Z,10.70
2023-01-07T05:20:56.885Z,10.69
2023-01-07T05:23:02.045Z,10.69
2023-01-07T05:25:09.171Z,10.70
2023-01-07T05:27:14.698Z,10.71
2023-01-07T05:29:19.578Z,10.71
2023-01-07T05:31:25.651Z,10.72
2023-01-07T05:33:33.367Z,10.74
2023-01-07T05:35:38.276Z,10.72
2023-01-07T05:37:44.310Z,10.72
2023-01-07T05:39:49.162Z,10.72
2023-01-07T05:41:57.086Z,10.71
2023-01-07T05:44:03.444Z,10.71
2023-01-07T05:46:11.307Z,10.70
2023-01-07T05:48:16.625Z,10.70
2023-01-07T05:50:23.769Z,10.68
2023-01-07T05:52:29.252Z,10.69
2023-01-07T05:54:34.107Z,10.69
2023-01-07T05:56:39.157Z,10.68
2023-01-07T05:58:43.959Z,10.67
2023-01-07T06:00:48.755Z,10.67
2023-01-07T06:02:53.665Z,10.68
2023-01-07T06:04:58.532Z,10.68
2023-01-07T06:07:06.080Z,10.70
2023-01-07T06:09:10.914Z,10.69
2023-01-07T06:11:15.896Z,10.70
2023-01-07T06:13:20.676Z,10.72
2023-01-07T06:15:25.535Z,10.72
2023-01-07T06:17:30.378Z,10.73
2023-01-07T06:19:35.235Z,10.74
2023-01-07T06:21:40.011Z,10.73
2023-01-07T06:23:47.608Z,10.68
2023-01-07T06:25:52.738Z,10.67
2023-01-07T06:27:59.448Z,10.65
2023-01-07T06:30:04.418Z,10.64
2023-01-07T06:32:09.382Z,10.63
2023-01-07T06:34:14.135Z,10.63
2023-01-07T06:36:19.075Z,10.65
2023-01-07T06:38:23.836Z,10.64
2023-01-07T06:40:31.318Z,10.62
2023-01-07T06:42:36.221Z,10.60
2023-01-07T06:44:41.122Z,10.59
2023-01-07T06:46:47.627Z,10.58
2023-01-07T06:48:52.488Z,10.58
2023-01-07T06:50:57.261Z,10.58
2023-01-07T06:53:02.258Z,10.55
2023-01-07T06:55:07.710Z,10.51
2023-01-07T06:57:15.547Z,10.48
2023-01-07T06:59:20.369Z,10.50
2023-01-07T07:01:25.563Z,10.53
2023-01-07T07:03:30.653Z,10.52
2023-01-07T07:05:36.382Z,10.53
2023-01-07T07:07:41.373Z,10.53
2023-01-07T07:09:46.622Z,10.57
2023-01-07T07:11:51.132Z,10.55
2023-01-07T07:13:59.992Z,10.52
2023-01-07T07:16:04.940Z,10.50
2023-01-07T07:18:09.851Z,10.52
2023-01-07T07:20:15.192Z,10.51
2023-01-07T07:22:20.037Z,10.49
2023-01-07T07:24:24.971Z,10.48
2023-01-07T07:26:29.822Z,10.51
2023-01-07T07:28:34.646Z,10.47
2023-01-07T07:30:45.492Z,10.51
2023-01-07T07:32:52.309Z,10.53
2023-01-07T07:34:57.442Z,10.53
2023-01-07T07:37:02.000Z,10.49
2023-01-07T07:39:07.189Z,10.47
2023-01-07T07:41:11.997Z,10.48
2023-01-07T07:43:16.999Z,10.52
2023-01-07T07:45:22.541Z,10.53
2023-01-07T07:47:29.983Z,10.50
2023-01-07T07:49:34.797Z,10.50
2023-01-07T07:51:39.629Z,10.50
2023-01-07T07:53:44.498Z,10.51
2023-01-07T07:55:49.350Z,10.51
2023-01-07T07:57:57.168Z,10.51
2023-01-07T08:00:02.011Z,10.49
2023-01-07T08:02:19.874Z,10.52
2023-01-07T08:04:28.952Z,10.54
2023-01-07T08:06:34.413Z,10.51
2023-01-07T08:08:39.386Z,10.48
2023-01-07T08:10:44.187Z,10.43
2023-01-07T08:12:49.717Z,10.36
2023-01-07T08:14:54.542Z,10.38
2023-01-07T08:16:59.520Z,10.42
2023-01-07T08:19:04.285Z,10.44
2023-01-07T08:21:11.862Z,10.45
2023-01-07T08:23:16.679Z,10.44
2023-01-07T08:25:22.136Z,10.45
2023-01-07T08:27:27.931Z,10.51
2023-01-07T08:29:32.816Z,10.44
2023-01-07T08:31:40.616Z,10.49
2023-01-07T08:33:45.548Z,10.54
2023-01-07T08:35:50.318Z,10.54
2023-01-07T08:38:03.685Z,10.58
2023-01-07T08:40:09.996Z,10.57
2023-01-07T08:42:15.292Z,10.61
2023-01-07T08:44:19.891Z,10.58
2023-01-07T08:46:25.051Z,10.61
2023-01-07T08:48:29.993Z,10.67
2023-01-07T08:50:35.753Z,10.68
2023-01-07T08:52:41.163Z,10.67
2023-01-07T08:54:48.576Z,10.67
2023-01-07T08:56:53.462Z,10.70
2023-01-07T08:58:58.509Z,10.65
2023-01-07T09:01:06.143Z,10.69
2023-01-07T09:03:11.418Z,10.73
2023-01-07T09:05:16.249Z,10.74
2023-01-07T09:07:21.613Z,10.73
2023-01-07T09:09:26.412Z,10.76
2023-01-07T09:11:35.924Z,10.76
2023-01-07T09:13:40.702Z,10.76
2023-01-07T09:15:45.885Z,10.78
2023-01-07T09:17:50.837Z,10.78
2023-01-07T09:19:55.645Z,10.81
2023-01-07T09:22:00.437Z,10.86
2023-01-07T09:24:06.501Z,10.88
2023-01-07T09:26:11.450Z,10.91
2023-01-07T09:28:18.889Z,10.94
2023-01-07T09:30:23.771Z,10.93
2023-01-07T09:32:29.630Z,10.93
2023-01-07T09:34:34.659Z,10.95
2023-01-07T09:36:39.582Z,10.99
2023-01-07T09:38:44.457Z,10.97
2023-01-07T09:40:49.309Z,10.96
2023-01-07T09:43:00.748Z,10.99
2023-01-07T09:45:19.763Z,11.03
2023-01-07T09:47:29.421Z,11.05
2023-01-07T09:49:35.217Z,11.06
2023-01-07T09:51:43.907Z,11.07
2023-01-07T09:53:52.218Z,11.07
2023-01-07T09:56:10.506Z,11.04
2023-01-07T09:58:19.467Z,11.02
2023-01-07T10:00:28.110Z,10.99
2023-01-07T10:02:44.872Z,10.94
2023-01-07T10:04:56.014Z,10.94
2023-01-07T10:07:10.267Z,11.00
2023-01-07T10:09:27.079Z,11.01
2023-01-07T10:11:45.068Z,11.05
2023-01-07T10:14:08.362Z,11.06
2023-01-07T10:16:23.500Z,11.06
2023-01-07T10:18:40.476Z,11.06
2023-01-07T10:20:53.896Z,11.10
2023-01-07T10:23:03.477Z,11.13
2023-01-07T10:25:19.355Z,11.18
2023-01-07T10:27:30.860Z,11.13
2023-01-07T10:29:39.749Z,11.17
2023-01-07T10:31:48.478Z,11.25
2023-01-07T10:33:56.285Z,11.35
2023-01-07T10:36:12.673Z,11.45
2023-01-07T10:38:22.519Z,11.50
2023-01-07T10:40:37.385Z,11.57
2023-01-07T10:42:48.533Z,11.62
2023-01-07T10:45:24.651Z,11.57
2023-01-07T10:47:47.872Z,11.60
2023-01-07T10:50:20.876Z,11.65
2023-01-07T10:52:37.699Z,11.70
2023-01-07T10:54:58.558Z,11.76
2023-01-07T10:57:09.551Z,11.79
2023-01-07T10:59:18.437Z,11.88
2023-01-07T11:01:27.991Z,11.94
2023-01-07T11:03:38.930Z,11.92
2023-01-07T11:05:44.111Z,11.84
2023-01-07T11:07:52.822Z,11.83
2023-01-07T11:09:59.019Z,11.80
2023-01-07T11:12:08.711Z,11.85
2023-01-07T11:14:18.643Z,11.94
2023-01-07T11:16:28.176Z,11.96
2023-01-07T11:18:42.368Z,11.99
2023-01-07T11:20:50.404Z,11.98
2023-01-07T11:22:55.177Z,11.96
2023-01-07T11:25:01.315Z,11.94
2023-01-07T11:27:09.556Z,11.91
2023-01-07T11:29:19.867Z,11.96
2023-01-07T11:31:45.365Z,11.97
2023-01-07T11:34:01.934Z,12.00
2023-01-07T11:36:11.506Z,11.99
2023-01-07T11:38:30.616Z,11.96
2023-01-07T11:40:35.838Z,11.93
2023-01-07T11:42:50.369Z,11.92
2023-01-07T11:45:15.092Z,11.91
2023-01-07T11:47:21.171Z,11.95
2023-01-07T11:49:33.870Z,11.95
2023-01-07T11:51:43.024Z,11.97
2023-01-07T11:53:51.362Z,11.96
2023-01-07T11:56:01.873Z,11.99
2023-01-07T11:58:29.440Z,12.00
2023-01-07T12:00:32.142Z,12.04
2023-01-07T12:02:39.870Z,12.09
2023-01-07T12:04:47.440Z,12.14
2023-01-07T12:06:54.112Z,12.20
2023-01-07T12:09:06.321Z,12.28
2023-01-07T12:11:14.543Z,12.38
2023-01-07T12:13:25.913Z,12.42
2023-01-07T12:15:33.605Z,12.47
2023-01-07T12:17:39.319Z,12.48
2023-01-07T12:20:04.209Z,12.54
2023-01-07T12:22:27.356Z,12.51
2023-01-07T12:25:07.624Z,12.54
2023-01-07T12:27:23.277Z,12.60
2023-01-07T12:29:41.276Z,12.62
2023-01-07T12:31:57.633Z,12.67
2023-01-07T12:34:08.779Z,12.63
2023-01-07T12:36:23.343Z,12.61
2023-01-07T12:38:34.032Z,12.58
2023-01-07T12:40:43.746Z,12.59
2023-01-07T12:42:54.297Z,12.51
2023-01-07T12:45:04.086Z,12.48
2023-01-07T12:47:32.641Z,12.43
2023-01-07T12:49:43.710Z,12.45
2023-01-07T12:51:55.320Z,12.48
2023-01-07T12:54:06.619Z,12.48
2023-01-07T12:56:18.613Z,12.40
2023-01-07T12:58:38.095Z,12.41
2023-01-07T13:00:47.264Z,12.39
2023-01-07T13:03:02.681Z,12.44
2023-01-07T13:05:14.929Z,12.39
2023-01-07T13:07:27.759Z,12.35
2023-01-07T13:09:39.428Z,12.31
2023-01-07T13:11:59.117Z,12.27
2023-01-07T13:14:04.423Z,12.20
2023-01-07T13:16:14.101Z,12.14
2023-01-07T13:18:20.519Z,12.06
2023-01-07T13:20:42.534Z,12.11
2023-01-07T13:22:58.411Z,12.11
2023-01-07T13:25:18.103Z,12.08
2023-01-07T13:27:30.217Z,12.12
2023-01-07T13:29:50.644Z,12.15
2023-01-07T13:32:33.770Z,12.05
2023-01-07T13:34:53.348Z,11.96
2023-01-07T13:37:25.470Z,11.89
2023-01-07T13:39:57.007Z,11.77
2023-01-07T13:42:16.270Z,11.74
2023-01-07T13:44:51.161Z,11.67
2023-01-07T13:46:56.328Z,11.67
2023-01-07T13:49:01.768Z,11.70
2023-01-07T13:51:09.841Z,11.72
2023-01-07T13:53:34.042Z,11.73
2023-01-07T13:55:44.516Z,11.72
2023-01-07T13:57:49.527Z,11.86
2023-01-07T13:59:59.293Z,11.95
2023-01-07T14:02:20.220Z,11.94
2023-01-07T14:04:49.836Z,11.89
2023-01-07T14:06:55.614Z,11.77
2023-01-07T14:09:03.160Z,11.72
2023-01-07T14:11:10.770Z,11.66
2023-01-07T14:13:29.587Z,11.64
2023-01-07T14:16:04.921Z,11.57
2023-01-07T14:18:50.953Z,11.53
2023-01-07T14:21:12.858Z,11.52
2023-01-07T14:23:28.248Z,11.55
2023-01-07T14:25:52.321Z,11.57
2023-01-07T14:28:16.119Z,11.57
2023-01-07T14:30:25.111Z,11.57
2023-01-07T14:32:36.675Z,11.57
2023-01-07T14:34:42.513Z,11.56
2023-01-07T14:37:26.243Z,11.53
2023-01-07T14:39:35.405Z,11.45
2023-01-07T14:42:15.344Z,11.38
2023-01-07T14:44:32.989Z,11.36
2023-01-07T14:46:49.095Z,11.30
2023-01-07T14:49:15.453Z,11.22
2023-01-07T14:51:49.955Z,11.19
2023-01-07T14:54:10.846Z,11.15
2023-01-07T14:56:27.405Z,11.15
2023-01-07T14:58:45.033Z,11.14
2023-01-07T15:01:24.705Z,11.12
2023-01-07T15:03:44.617Z,11.09
2023-01-07T15:06:06.755Z,11.07
2023-01-07T15:08:32.248Z,11.06
2023-01-07T15:10:50.048Z,10.98
2023-01-07T15:13:11.475Z,10.95
2023-01-07T15:15:34.584Z,10.94
2023-01-07T15:17:44.917Z,10.93
2023-01-07T15:19:50.090Z,10.91
2023-01-07T15:22:08.084Z,10.87
2023-01-07T15:24:23.403Z,10.84
2023-01-07T15:26:37.606Z,10.81
2023-01-07T15:28:50.502Z,10.77
2023-01-07T15:31:03.410Z,10.76
2023-01-07T15:33:28.453Z,10.74
2023-01-07T15:35:37.277Z,10.71
2023-01-07T15:37:47.799Z,10.70
2023-01-07T15:39:57.226Z,10.69
2023-01-07T15:42:03.797Z,10.65
2023-01-07T15:44:17.451Z,10.63
2023-01-07T15:46:23.225Z,10.60
2023-01-07T15:48:30.918Z,10.58
2023-01-07T15:50:37.757Z,10.54
2023-01-07T15:52:42.666Z,10.52
2023-01-07T15:54:47.769Z,10.48
2023-01-07T15:56:54.468Z,10.45
2023-01-07T15:59:00.356Z,10.42
2023-01-07T16:01:07.760Z,10.38
2023-01-07T16:03:18.262Z,10.35
2023-01-07T16:05:26.472Z,10.33
2023-01-07T16:07:34.422Z,10.30
2023-01-07T16:09:39.440Z,10.27
2023-01-07T16:11:44.472Z,10.26
2023-01-07T16:13:59.447Z,10.24
2023-01-07T16:16:06.747Z,10.21
2023-01-07T16:18:21.604Z,10.21
2023-01-07T16:20:32.507Z,10.19
2023-01-07T16:22:38.731Z,10.17
2023-01-07T16:24:50.933Z,10.13
2023-01-07T16:26:59.502Z,10.11
2023-01-07T16:29:11.202Z,10.11
2023-01-07T16:31:19.672Z,10.06
2023-01-07T16:33:27.790Z,10.03
2023-01-07T16:35:37.724Z,10.02
2023-01-07T16:37:43.142Z,9.98
2023-01-07T16:39:51.542Z,9.98
2023-01-07T16:42:17.351Z,9.97
2023-01-07T16:45:00.404Z,9.96
2023-01-07T16:47:17.925Z,9.96
2023-01-07T16:49:28.933Z,9.94
2023-01-07T16:51:42.537Z,9.91
2023-01-07T16:53:50.538Z,9.86
2023-01-07T16:55:57.420Z,9.84
2023-01-07T16:58:02.381Z,9.82
2023-01-07T17:00:18.364Z,9.77
2023-01-07T17:02:32.399Z,9.75
2023-01-07T17:04:37.393Z,9.71
2023-01-07T17:06:48.820Z,9.71
2023-01-07T17:08:59.969Z,9.67
2023-01-07T17:11:09.403Z,9.65
2023-01-07T17:13:36.588Z,9.61
2023-01-07T17:15:42.089Z,9.56
2023-01-07T17:17:47.165Z,9.49
2023-01-07T17:19:56.849Z,9.48
2023-01-07T17:22:04.892Z,9.45
2023-01-07T17:24:24.957Z,9.44
2023-01-07T17:26:40.511Z,9.41
2023-01-07T17:28:48.577Z,9.39
2023-01-07T17:30:53.743Z,9.37
2023-01-07T17:32:58.547Z,9.32
2023-01-07T17:35:04.888Z,9.27
2023-01-07T17:37:16.776Z,9.23
2023-01-07T17:39:24.733Z,9.19
2023-01-07T17:41:41.999Z,9.16
2023-01-07T17:43:46.892Z,9.10
2023-01-07T17:45:52.855Z,9.09
2023-01-07T17:47:59.005Z,9.07
2023-01-07T17:50:04.196Z,9.05
2023-01-07T17:52:14.864Z,9.03
2023-01-07T17:54:23.074Z,9.01
2023-01-07T17:56:29.576Z,9.00
2023-01-07T17:58:36.140Z,9.00
2023-01-07T18:00:41.109Z,8.98
2023-01-07T18:02:46.173Z,8.98
2023-01-07T18:04:51.060Z,8.94
2023-01-07T18:06:55.979Z,8.86
2023-01-07T18:09:04.991Z,8.80
2023-01-07T18:11:22.238Z,8.70
2023-01-07T18:13:29.099Z,8.67
2023-01-07T18:15:33.972Z,8.60
2023-01-07T18:17:38.802Z,8.58
2023-01-07T18:19:46.844Z,8.58
2023-01-07T18:21:51.900Z,8.53
2023-01-07T18:23:56.747Z,8.51
2023-01-07T18:26:04.285Z,8.50
2023-01-07T18:28:09.006Z,8.49
2023-01-07T18:30:17.495Z,8.46
2023-01-07T18:32:22.390Z,8.41
2023-01-07T18:34:27.278Z,8.35
2023-01-07T18:36:32.184Z,8.30
2023-01-07T18:38:37.035Z,8.24
2023-01-07T18:40:41.936Z,8.22
2023-01-07T18:42:49.391Z,8.22
2023-01-07T18:44:54.184Z,8.23
2023-01-07T18:46:59.021Z,8.20
2023-01-07T18:49:03.944Z,8.18
2023-01-07T18:51:16.260Z,8.13
2023-01-07T18:53:26.716Z,8.11
2023-01-07T18:55:31.619Z,8.08
2023-01-07T18:57:36.465Z,8.05
2023-01-07T18:59:43.878Z,8.04
2023-01-07T19:01:48.977Z,8.01
2023-01-07T19:03:53.927Z,8.02
2023-01-07T19:05:59.034Z,8.01
2023-01-07T19:08:03.866Z,8.03
2023-01-07T19:10:10.121Z,8.04
2023-01-07T19:12:15.295Z,8.01
2023-01-07T19:14:20.110Z,7.98
2023-01-07T19:16:27.611Z,7.96
2023-01-07T19:18:32.436Z,7.91
2023-01-07T19:20:37.646Z,7.90
2023-01-07T19:22:42.396Z,7.85
2023-01-07T19:24:47.729Z,7.84
2023-01-07T19:26:52.600Z,7.83
2023-01-07T19:28:58.945Z,7.80
2023-01-07T19:31:07.915Z,7.78
2023-01-07T19:33:15.585Z,7.75
2023-01-07T19:35:21.102Z,7.71
2023-01-07T19:37:25.941Z,7.70
2023-01-07T19:39:30.895Z,7.67
2023-01-07T19:41:35.810Z,7.69
2023-01-07T19:43:40.975Z,7.65
2023-01-07T19:45:56.087Z,7.63
2023-01-07T19:48:01.073Z,7.57
2023-01-07T19:50:09.429Z,7.54
2023-01-07T19:52:14.497Z,7.51
2023-01-07T19:54:20.556Z,7.47
2023-01-07T19:56:25.371Z,7.48
2023-01-07T19:58:30.382Z,7.46
2023-01-07T20:00:36.031Z,7.43
2023-01-07T20:02:40.989Z,7.39
2023-01-07T20:04:45.972Z,7.36
2023-01-07T20:06:53.449Z,7.34
2023-01-07T20:09:00.421Z,7.32
2023-01-07T20:11:06.125Z,7.31
2023-01-07T20:13:11.033Z,7.28
2023-01-07T20:15:15.989Z,7.26
2023-01-07T20:17:20.943Z,7.25
2023-01-07T20:19:27.359Z,7.20
2023-01-07T20:21:32.286Z,7.17
2023-01-07T20:23:40.948Z,7.16
2023-01-07T20:25:45.768Z,7.19
2023-01-07T20:27:50.880Z,7.15
2023-01-07T20:29:55.763Z,7.17
2023-01-07T20:32:00.675Z,7.15
2023-01-07T20:34:05.590Z,7.10
2023-01-07T20:36:13.137Z,7.06
2023-01-07T20:38:17.937Z,7.03
2023-01-07T20:40:25.455Z,7.03
2023-01-07T20:42:31.993Z,6.98
2023-01-07T20:44:37.059Z,6.96
2023-01-07T20:46:42.045Z,6.94
2023-01-07T20:48:47.045Z,6.89
2023-01-07T20:50:51.879Z,6.87
2023-01-07T20:52:56.649Z,6.88
2023-01-07T20:55:01.499Z,6.83
2023-01-07T20:57:08.979Z,6.84
2023-01-07T20:59:15.990Z,6.78
2023-01-07T21:01:23.081Z,6.81
2023-01-07T21:03:28.869Z,6.79
2023-01-07T21:05:33.666Z,6.74
2023-01-07T21:07:38.552Z,6.74
2023-01-07T21:09:44.843Z,6.75
2023-01-07T21:11:50.101Z,6.73
2023-01-07T21:13:57.680Z,6.76
2023-01-07T21:16:06.018Z,6.73
2023-01-07T21:18:10.962Z,6.69
2023-01-07T21:20:18.009Z,6.66
2023-01-07T21:22:22.802Z,6.64
2023-01-07T21:24:30.408Z,6.64
2023-01-07T21:26:35.229Z,6.63
2023-01-07T21:28:40.058Z,6.63
2023-01-07T21:30:47.636Z,6.67
2023-01-07T21:32:52.475Z,6.69
2023-01-07T21:34:57.245Z,6.67
2023-01-07T21:37:02.149Z,6.67
2023-01-07T21:39:08.697Z,6.65
2023-01-07T21:41:15.299Z,6.67
2023-01-07T21:43:20.088Z,6.66
2023-01-07T21:45:25.004Z,6.67
2023-01-07T21:47:32.749Z,6.69
2023-01-07T21:49:37.545Z,6.69
2023-01-07T21:51:42.489Z,6.68
2023-01-07T21:53:47.875Z,6.67
2023-01-07T21:55:52.717Z,6.65
2023-01-07T21:57:57.497Z,6.64
2023-01-07T22:00:02.287Z,6.64
2023-01-07T22:02:17.868Z,6.62
2023-01-07T22:04:25.313Z,6.64
2023-01-07T22:06:31.561Z,6.65
2023-01-07T22:08:36.466Z,6.61
2023-01-07T22:10:41.365Z,6.63
2023-01-07T22:12:46.145Z,6.61
2023-01-07T22:14:50.946Z,6.60
2023-01-07T22:16:55.832Z,6.58
2023-01-07T22:19:01.466Z,6.57
2023-01-07T22:21:09.237Z,6.56
2023-01-07T22:23:18.628Z,6.56
2023-01-07T22:25:24.585Z,6.47
2023-01-07T22:27:29.385Z,6.45
2023-01-07T22:29:34.381Z,6.45
2023-01-07T22:31:39.997Z,6.44
2023-01-07T22:33:44.818Z,6.43
2023-01-07T22:35:50.157Z,6.42
2023-01-07T22:38:00.389Z,6.45
2023-01-07T22:40:08.947Z,6.45
2023-01-07T22:42:17.678Z,6.42
2023-01-07T22:44:26.320Z,6.43
2023-01-07T22:46:34.173Z,6.44
2023-01-07T22:48:39.318Z,6.47
2023-01-07T22:50:44.387Z,6.42
2023-01-07T22:52:49.508Z,6.43
2023-01-07T22:54:56.829Z,6.42
2023-01-07T22:57:01.835Z,6.42
2023-01-07T22:59:06.754Z,6.42
2023-01-07T23:01:15.617Z,6.42
2023-01-07T23:03:20.849Z,6.41
2023-01-07T23:05:25.377Z,6.33
2023-01-07T23:07:30.218Z,6.30
2023-01-07T23:09:35.136Z,6.28
2023-01-07T23:11:59.421Z,6.27
2023-01-07T23:14:04.784Z,6.23
2023-01-07T23:16:10.207Z,6.26
2023-01-07T23:18:14.977Z,6.27
2023-01-07T23:20:20.229Z,6.27
2023-01-07T23:22:25.033Z,6.29
2023-01-07T23:24:29.864Z,6.28
2023-01-07T23:26:34.715Z,6.28
2023-01-07T23:28:42.153Z,6.31
2023-01-07T23:30:47.031Z,6.33
2023-01-07T23:32:52.141Z,6.33
2023-01-07T23:34:56.919Z,6.33
2023-01-07T23:37:02.501Z,6.26
2023-01-07T23:39:08.799Z,6.25
2023-01-07T23:41:14.799Z,6.27
2023-01-07T23:43:19.574Z,6.21
2023-01-07T23:45:27.564Z,6.21
2023-01-07T23:47:32.406Z,6.18
2023-01-07T23:49:38.016Z,6.18
2023-01-07T23:51:43.683Z,6.15
2023-01-07T23:53:49.317Z,6.16
2023-01-07T23:55:54.499Z,6.11
2023-01-07T23:57:59.143Z,6.04
